KSBD/SBD METAR and TAF weather

Enter ICAO airport designator
Station Type Date Time Source
KSBD METAR 2019/08/25 02:50 UTC NOAA

KSBD 250250Z 23006KT 10SM SKC 31/10 A2994


Station Type Date Time Source
KSBD Decoded METAR 2019/08/25 02:50 UTC NOAA

Station name not available
Aug 24, 2019 - 10:50 PM EDT / 2019.08.25 0250 UTC
Wind: from the SW (230 degrees) at 7 MPH (6 KT):0
Visibility: 10 mile(s):0
Sky conditions: clear
Temperature: 87 F (31 C)
Dew Point: 50 F (10 C)
Relative Humidity: 27%
Pressure (altimeter): 29.94 in. Hg (1013 hPa)
ob: KSBD 250250Z 23006KT 10SM SKC 31/10 A2994
cycle: 3

Station Type Date Time Source
KSBD TAF 2019/08/24 18:42 UTC NOAA

TAF KSBD 241741Z 2418/2518 VRB04KT P6SM SKC
FM242100 25011KT P6SM SKC
FM250300 VRB04KT P6SM SKC

Example: see airport list